Time;durP1;ratioP1;P1;durP2;ratioP2;P2;SDS_P1;SDS_P2;PMS_P1;PMS_P2;Temp;Humidity;BMP_temperature;BMP_pressure;BME280_temperature;BME280_humidity;BME280_pressure;Samples;Min_cycle;Max_cycle;Signal;HPM_P1;HPM_P2
2021/06/26 00:02:57;;;;;;;9.30;7.70;;;;;;;;;;8289778;28;20533;-70
2021/06/26 00:07:03;;;;;;;10.40;7.10;;;;;;;;;;8292001;28;20412;-71
2021/06/26 00:11:08;;;;;;;10.68;8.65;;;;;;;;;;8292889;28;20493;-70
2021/06/26 00:15:14;;;;;;;12.10;9.88;;;;;;;;;;8273999;28;20048;-71
2021/06/26 00:19:18;;;;;;;13.65;11.15;;;;;;;;;;8289746;28;20456;-70
2021/06/26 00:23:24;;;;;;;10.52;9.25;;;;;;;;;;8273111;28;20387;-70
2021/06/26 00:27:34;;;;;;;12.32;10.27;;;;;;;;;;8292212;28;20454;-71
2021/06/26 00:31:40;;;;;;;12.40;9.68;;;;;;;;;;8291036;28;20378;-71
2021/06/26 00:35:45;;;;;;;12.68;10.38;;;;;;;;;;8292033;28;20448;-72
2021/06/26 00:39:51;;;;;;;11.88;9.77;;;;;;;;;;8290439;28;20466;-70
2021/06/26 00:43:57;;;;;;;11.30;9.48;;;;;;;;;;8274747;28;20106;-71
2021/06/26 00:48:02;;;;;;;11.00;9.00;;;;;;;;;;8281815;28;20369;-71
2021/06/26 00:52:08;;;;;;;13.15;9.68;;;;;;;;;;8257177;28;20079;-71
2021/06/26 00:56:14;;;;;;;9.75;8.50;;;;;;;;;;8240646;28;20075;-73
2021/06/26 01:00:18;;;;;;;10.05;8.52;;;;;;;;;;8257442;28;20550;-71
2021/06/26 01:04:24;;;;;;;20.50;9.13;;;;;;;;;;8239431;28;20053;-71
2021/06/26 01:08:31;;;;;;;14.02;7.70;;;;;;;;;;8238310;28;20596;-72
2021/06/26 01:12:37;;;;;;;10.43;7.80;;;;;;;;;;8258687;28;20388;-71
2021/06/26 01:16:43;;;;;;;20.38;7.10;;;;;;;;;;8239791;28;20518;-71
2021/06/26 01:20:48;;;;;;;12.43;6.70;;;;;;;;;;8256361;28;20383;-71
2021/06/26 01:24:54;;;;;;;9.20;7.25;;;;;;;;;;8240991;28;20045;-72
2021/06/26 01:29:00;;;;;;;8.85;6.72;;;;;;;;;;8240928;28;20380;-72
2021/06/26 01:33:06;;;;;;;9.95;6.18;;;;;;;;;;8256719;28;20365;-72
2021/06/26 01:37:13;;;;;;;12.27;6.57;;;;;;;;;;8258388;28;20365;-72
2021/06/26 01:41:19;;;;;;;6.73;5.70;;;;;;;;;;8258755;28;20440;-71
2021/06/26 01:45:27;;;;;;;10.45;6.45;;;;;;;;;;8255240;28;20484;-72
2021/06/26 01:49:32;;;;;;;8.23;7.15;;;;;;;;;;8239663;28;20456;-71
2021/06/26 01:53:38;;;;;;;14.55;7.65;;;;;;;;;;8256932;28;20377;-71
2021/06/26 01:57:45;;;;;;;9.52;7.20;;;;;;;;;;8256123;28;20376;-72
2021/06/26 02:01:50;;;;;;;8.13;7.30;;;;;;;;;;8258206;28;20360;-71
2021/06/26 02:05:56;;;;;;;9.70;7.38;;;;;;;;;;8256167;28;20527;-72
2021/06/26 02:10:04;;;;;;;11.50;7.75;;;;;;;;;;8238846;28;20449;-71
2021/06/26 02:14:09;;;;;;;10.23;8.48;;;;;;;;;;8256532;28;20392;-72
2021/06/26 02:18:14;;;;;;;12.20;9.05;;;;;;;;;;8258965;28;20067;-72
2021/06/26 02:22:20;;;;;;;11.93;9.50;;;;;;;;;;8244960;28;20384;-72
2021/06/26 02:26:25;;;;;;;12.20;8.35;;;;;;;;;;8262269;28;20057;-73
2021/06/26 02:30:30;;;;;;;10.25;8.52;;;;;;;;;;8261063;28;20444;-71
2021/06/26 02:34:34;;;;;;;13.82;9.20;;;;;;;;;;8261800;28;20075;-71
2021/06/26 02:38:40;;;;;;;10.68;8.85;;;;;;;;;;8261299;28;20487;-72
2021/06/26 02:42:45;;;;;;;10.82;9.13;;;;;;;;;;8243339;28;20477;-72
2021/06/26 02:46:50;;;;;;;12.93;9.82;;;;;;;;;;8261448;28;20515;-72
2021/06/26 02:50:56;;;;;;;12.60;9.43;;;;;;;;;;8261371;28;20075;-72
2021/06/26 02:55:01;;;;;;;10.68;9.32;;;;;;;;;;8259451;28;20384;-72
2021/06/26 02:59:07;;;;;;;10.88;8.73;;;;;;;;;;8260685;28;20423;-72
2021/06/26 03:03:12;;;;;;;13.48;9.63;;;;;;;;;;8242947;28;20488;-72
2021/06/26 03:07:18;;;;;;;25.92;11.05;;;;;;;;;;8261616;28;20049;-71
2021/06/26 03:11:23;;;;;;;15.70;9.82;;;;;;;;;;8241895;28;20376;-71
2021/06/26 03:15:29;;;;;;;10.02;8.93;;;;;;;;;;8260680;28;20382;-72
2021/06/26 03:19:35;;;;;;;17.65;10.68;;;;;;;;;;8259494;28;20461;-71
2021/06/26 03:23:41;;;;;;;19.77;11.45;;;;;;;;;;8262227;28;20732;-71
2021/06/26 03:27:47;;;;;;;14.30;10.93;;;;;;;;;;8242621;28;20103;-71
2021/06/26 03:31:52;;;;;;;15.85;11.25;;;;;;;;;;8242828;28;20075;-71
2021/06/26 03:35:58;;;;;;;16.60;11.85;;;;;;;;;;8260114;28;20357;-71
2021/06/26 03:40:04;;;;;;;19.08;11.40;;;;;;;;;;8225364;28;20356;-70
2021/06/26 03:44:10;;;;;;;24.95;10.88;;;;;;;;;;8259168;28;20506;-70
2021/06/26 03:48:15;;;;;;;13.93;10.88;;;;;;;;;;8259399;28;20506;-70
2021/06/26 03:52:20;;;;;;;16.92;11.90;;;;;;;;;;8241361;28;20354;-71
2021/06/26 03:56:26;;;;;;;24.70;13.95;;;;;;;;;;8260556;28;20392;-72
2021/06/26 04:00:32;;;;;;;26.15;15.90;;;;;;;;;;8258227;28;20467;-70
2021/06/26 04:04:38;;;;;;;24.02;15.55;;;;;;;;;;8241410;28;20361;-70
2021/06/26 04:08:44;;;;;;;25.83;15.95;;;;;;;;;;8258654;28;20368;-71
2021/06/26 04:12:48;;;;;;;27.80;16.17;;;;;;;;;;8273225;28;20490;-70
2021/06/26 04:16:54;;;;;;;24.13;16.10;;;;;;;;;;8282632;28;20462;-70
2021/06/26 04:20:59;;;;;;;26.90;17.30;;;;;;;;;;8240298;28;20353;-70
2021/06/26 04:25:06;;;;;;;28.10;16.88;;;;;;;;;;8239254;28;20358;-70
2021/06/26 04:29:11;;;;;;;21.47;15.03;;;;;;;;;;8240677;28;20049;-70
2021/06/26 04:33:17;;;;;;;23.67;15.35;;;;;;;;;;8256952;28;20376;-70
2021/06/26 04:37:22;;;;;;;28.85;16.77;;;;;;;;;;8260216;28;20353;-70
2021/06/26 04:41:28;;;;;;;29.23;17.70;;;;;;;;;;8241700;28;20379;-70
2021/06/26 04:45:34;;;;;;;32.10;17.13;;;;;;;;;;8258566;28;20041;-71
2021/06/26 04:49:39;;;;;;;28.42;16.58;;;;;;;;;;8241884;28;20371;-70
2021/06/26 04:53:44;;;;;;;27.70;16.13;;;;;;;;;;8239888;28;20083;-70
2021/06/26 04:57:50;;;;;;;31.30;17.13;;;;;;;;;;8257537;28;20507;-70
2021/06/26 05:01:56;;;;;;;28.55;17.33;;;;;;;;;;8267142;28;20071;-70
2021/06/26 05:06:01;;;;;;;33.80;19.20;;;;;;;;;;8271917;28;20106;-72
2021/06/26 05:10:07;;;;;;;29.48;17.58;;;;;;;;;;8272853;28;20406;-70
2021/06/26 05:14:13;;;;;;;31.05;18.13;;;;;;;;;;8255937;28;20359;-70
2021/06/26 05:18:18;;;;;;;32.15;18.75;;;;;;;;;;8289145;28;20406;-70
2021/06/26 05:22:23;;;;;;;30.13;18.20;;;;;;;;;;8289507;28;20468;-70
2021/06/26 05:26:29;;;;;;;28.52;17.55;;;;;;;;;;8289692;28;20049;-70
2021/06/26 05:30:34;;;;;;;28.35;16.92;;;;;;;;;;8289223;28;20468;-70
2021/06/26 05:34:40;;;;;;;27.95;16.33;;;;;;;;;;8271259;28;20044;-70
2021/06/26 05:38:45;;;;;;;21.85;15.40;;;;;;;;;;8289933;28;20044;-70
2021/06/26 05:42:51;;;;;;;25.35;14.68;;;;;;;;;;8291137;28;20377;-70
2021/06/26 05:46:57;;;;;;;28.77;17.73;;;;;;;;;;8289403;28;20452;-70
2021/06/26 05:51:02;;;;;;;25.27;15.13;;;;;;;;;;8271312;28;20045;-70
2021/06/26 05:55:08;;;;;;;23.92;14.80;;;;;;;;;;8294690;28;20406;-70
2021/06/26 05:59:14;;;;;;;30.55;14.93;;;;;;;;;;8296905;28;20357;-70
2021/06/26 06:03:20;;;;;;;29.05;16.08;;;;;;;;;;8257010;28;20378;-72
2021/06/26 06:07:26;;;;;;;19.13;13.05;;;;;;;;;;8263197;28;20377;-70
2021/06/26 06:11:31;;;;;;;16.38;11.20;;;;;;;;;;8244249;28;20049;-71
2021/06/26 06:15:37;;;;;;;18.10;11.95;;;;;;;;;;8262812;28;20471;-70
2021/06/26 06:19:41;;;;;;;15.20;10.20;;;;;;;;;;8244666;28;20372;-71
2021/06/26 06:23:46;;;;;;;19.08;11.07;;;;;;;;;;8245733;28;20388;-71
2021/06/26 06:27:52;;;;;;;22.23;10.05;;;;;;;;;;8264492;28;20378;-74
2021/06/26 06:31:57;;;;;;;23.00;10.80;;;;;;;;;;8264800;28;20354;-70
2021/06/26 06:36:07;;;;;;;52.13;12.40;;;;;;;;;;8262125;28;20364;-71
2021/06/26 06:40:13;;;;;;;41.45;10.60;;;;;;;;;;8261944;28;20471;-70
2021/06/26 06:44:19;;;;;;;21.85;9.50;;;;;;;;;;8261840;28;20108;-70
2021/06/26 06:48:24;;;;;;;13.38;8.45;;;;;;;;;;8262050;28;20072;-70
2021/06/26 06:52:29;;;;;;;31.02;8.93;;;;;;;;;;8262143;28;20372;-70
2021/06/26 06:56:34;;;;;;;14.05;7.65;;;;;;;;;;8261156;28;20162;-69
2021/06/26 07:00:40;;;;;;;11.15;7.47;;;;;;;;;;8262059;28;20049;-70
2021/06/26 07:04:46;;;;;;;13.35;7.70;;;;;;;;;;8242965;28;20479;-72
2021/06/26 07:08:52;;;;;;;10.50;7.68;;;;;;;;;;8260953;28;20472;-70
2021/06/26 07:12:58;;;;;;;9.98;7.32;;;;;;;;;;8227595;28;20364;-70
2021/06/26 07:17:03;;;;;;;12.25;9.15;;;;;;;;;;8261718;28;20477;-71
2021/06/26 07:21:10;;;;;;;16.15;9.73;;;;;;;;;;8262640;28;20456;-70
2021/06/26 07:25:18;;;;;;;16.33;8.98;;;;;;;;;;8244229;28;20399;-71
2021/06/26 07:29:24;;;;;;;16.67;9.68;;;;;;;;;;8260058;28;20383;-71
2021/06/26 07:33:29;;;;;;;16.08;9.57;;;;;;;;;;8242065;28;20452;-71
2021/06/26 07:37:34;;;;;;;13.80;10.65;;;;;;;;;;8259727;28;20049;-72
2021/06/26 07:41:40;;;;;;;16.73;11.13;;;;;;;;;;8241582;28;20053;-72
2021/06/26 07:45:45;;;;;;;17.88;11.30;;;;;;;;;;8259663;28;20461;-72
2021/06/26 07:49:51;;;;;;;15.85;10.85;;;;;;;;;;8259631;28;20122;-72
2021/06/26 07:53:56;;;;;;;15.55;11.63;;;;;;;;;;8258522;28;20056;-72
2021/06/26 07:58:01;;;;;;;19.02;11.93;;;;;;;;;;8241652;28;20364;-72
2021/06/26 08:02:08;;;;;;;18.15;11.27;;;;;;;;;;8250984;28;20463;-72
2021/06/26 08:06:14;;;;;;;15.95;11.30;;;;;;;;;;8273544;28;20052;-72
2021/06/26 08:10:21;;;;;;;15.00;11.03;;;;;;;;;;8273760;28;20052;-71
2021/06/26 08:14:26;;;;;;;15.00;12.02;;;;;;;;;;8274397;28;20479;-71
2021/06/26 08:18:32;;;;;;;15.07;12.10;;;;;;;;;;8289987;28;20044;-71
2021/06/26 08:22:38;;;;;;;19.58;12.55;;;;;;;;;;8290751;28;20045;-72
2021/06/26 08:26:43;;;;;;;23.58;13.98;;;;;;;;;;8256901;28;20463;-72
2021/06/26 08:30:49;;;;;;;18.45;12.70;;;;;;;;;;8292503;28;20049;-72
2021/06/26 08:34:54;;;;;;;18.25;13.35;;;;;;;;;;8290816;28;20048;-72
2021/06/26 08:39:10;;;;;;;19.70;13.15;;;;;;;;;;8273321;28;20074;-73
2021/06/26 08:43:15;;;;;;;20.05;13.25;;;;;;;;;;8289819;28;20032;-72
2021/06/26 08:47:22;;;;;;;14.25;11.43;;;;;;;;;;8273460;28;20456;-73
2021/06/26 08:51:27;;;;;;;14.07;10.85;;;;;;;;;;8273464;28;20076;-71
2021/06/26 08:55:33;;;;;;;15.35;9.65;;;;;;;;;;8290584;28;20459;-72
2021/06/26 08:59:40;;;;;;;16.23;10.90;;;;;;;;;;8289031;28;20363;-74
2021/06/26 09:03:45;;;;;;;15.07;9.80;;;;;;;;;;8265364;28;20053;-71
2021/06/26 09:07:51;;;;;;;13.02;8.43;;;;;;;;;;8257541;28;20484;-72
2021/06/26 09:12:03;;;;;;;13.25;8.45;;;;;;;;;;8256552;28;20350;-72
2021/06/26 09:16:16;;;;;;;10.57;7.65;;;;;;;;;;8257875;28;20375;-76
2021/06/26 09:20:22;;;;;;;9.98;7.65;;;;;;;;;;8239939;28;20375;-69
2021/06/26 09:24:45;;;;;;;12.15;7.63;;;;;;;;;;8255069;28;20052;-70
2021/06/26 09:28:51;;;;;;;11.27;7.05;;;;;;;;;;8239504;28;20060;-71
2021/06/26 09:32:56;;;;;;;10.63;5.95;;;;;;;;;;8239646;28;20403;-70
2021/06/26 09:37:05;;;;;;;8.05;5.10;;;;;;;;;;8222407;28;20358;-69
2021/06/26 09:41:17;;;;;;;8.70;5.10;;;;;;;;;;8239900;28;20467;-69
2021/06/26 09:45:23;;;;;;;8.93;4.90;;;;;;;;;;8236765;28;20388;-70
2021/06/26 09:49:31;;;;;;;4.40;3.47;;;;;;;;;;8238301;28;20487;-68
2021/06/26 09:53:36;;;;;;;12.07;3.88;;;;;;;;;;8239291;28;20357;-70
2021/06/26 09:57:42;;;;;;;6.55;3.25;;;;;;;;;;8255722;28;20075;-68
2021/06/26 10:01:47;;;;;;;6.05;3.38;;;;;;;;;;8262301;28;20350;-70
2021/06/26 10:05:54;;;;;;;7.72;3.47;;;;;;;;;;8271995;28;20353;-70
2021/06/26 10:09:58;;;;;;;5.18;4.20;;;;;;;;;;8272585;28;20070;-68
2021/06/26 10:14:10;;;;;;;7.28;3.42;;;;;;;;;;8270299;28;20498;-69
2021/06/26 10:18:16;;;;;;;9.38;4.35;;;;;;;;;;8290085;28;20056;-68
2021/06/26 10:22:21;;;;;;;8.55;3.95;;;;;;;;;;8272578;28;20340;-69
2021/06/26 10:26:28;;;;;;;12.10;4.68;;;;;;;;;;8271381;28;20522;-70
2021/06/26 10:30:35;;;;;;;8.20;4.70;;;;;;;;;;8270370;28;20412;-69
2021/06/26 10:34:50;;;;;;;8.90;4.43;;;;;;;;;;8289218;28;20479;-70
2021/06/26 10:39:15;;;;;;;5.95;3.53;;;;;;;;;;8291065;28;20075;-71
2021/06/26 10:43:31;;;;;;;6.82;3.45;;;;;;;;;;8288939;28;20045;-70
2021/06/26 10:47:42;;;;;;;5.82;2.67;;;;;;;;;;8293285;28;20360;-70
2021/06/26 10:51:48;;;;;;;5.32;3.03;;;;;;;;;;8293822;28;20383;-71
2021/06/26 10:56:12;;;;;;;3.95;2.70;;;;;;;;;;8291837;28;20391;-69
2021/06/26 11:00:18;;;;;;;5.00;2.90;;;;;;;;;;8295690;28;20631;-69
2021/06/26 11:04:24;;;;;;;3.95;2.17;;;;;;;;;;8291144;28;20137;-72
2021/06/26 11:08:29;;;;;;;3.17;2.20;;;;;;;;;;8293589;28;20478;-70
2021/06/26 11:12:47;;;;;;;4.55;2.10;;;;;;;;;;8290903;28;20493;-70
2021/06/26 11:16:56;;;;;;;6.93;2.90;;;;;;;;;;8290514;28;20378;-70
2021/06/26 11:21:03;;;;;;;13.52;3.15;;;;;;;;;;8276006;28;20406;-70
2021/06/26 11:25:13;;;;;;;2.92;1.73;;;;;;;;;;8292740;28;20088;-70
2021/06/26 11:29:30;;;;;;;4.88;2.22;;;;;;;;;;8275455;28;20486;-70
2021/06/26 11:33:39;;;;;;;6.38;2.63;;;;;;;;;;8292848;28;20075;-69
2021/06/26 11:37:48;;;;;;;4.10;2.92;;;;;;;;;;8292594;28;20075;-69
2021/06/26 11:41:54;;;;;;;5.35;2.80;;;;;;;;;;8294423;28;20465;-69
2021/06/26 11:46:00;;;;;;;9.77;3.08;;;;;;;;;;8292749;28;20456;-70
2021/06/26 11:50:17;;;;;;;7.53;3.80;;;;;;;;;;8292838;28;20352;-67
2021/06/26 11:54:23;;;;;;;7.57;4.22;;;;;;;;;;8290741;28;20490;-69
2021/06/26 11:58:44;;;;;;;6.88;4.28;;;;;;;;;;8274120;28;20352;-71
2021/06/26 12:02:49;;;;;;;14.30;4.03;;;;;;;;;;8289794;28;20345;-70
2021/06/26 12:06:55;;;;;;;5.88;4.13;;;;;;;;;;8274627;28;20067;-69
2021/06/26 12:11:01;;;;;;;19.75;4.35;;;;;;;;;;8291016;28;20452;-69
2021/06/26 12:15:12;;;;;;;6.80;4.05;;;;;;;;;;8291136;28;20052;-72
2021/06/26 12:19:17;;;;;;;7.47;3.90;;;;;;;;;;8290405;28;20376;-70
2021/06/26 12:23:23;;;;;;;5.03;3.90;;;;;;;;;;8290613;28;20390;-69
2021/06/26 12:27:29;;;;;;;14.85;4.25;;;;;;;;;;8290874;28;20070;-70
2021/06/26 12:31:43;;;;;;;4.90;3.38;;;;;;;;;;8274707;28;20349;-70
2021/06/26 12:35:48;;;;;;;10.05;4.25;;;;;;;;;;8291050;28;20367;-70
2021/06/26 12:40:15;;;;;;;4.82;3.25;;;;;;;;;;8290321;28;20395;-69
2021/06/26 12:44:20;;;;;;;;;;;;;;;;;;8275903;28;20070;-69
2021/06/26 12:48:27;;;;;;;4.95;3.35;;;;;;;;;;8273149;28;20256;-69
2021/06/26 12:52:32;;;;;;;3.47;3.05;;;;;;;;;;8289947;28;20472;-69
2021/06/26 12:56:40;;;;;;;4.90;3.63;;;;;;;;;;8290474;28;20070;-71
2021/06/26 13:00:57;;;;;;;5.40;3.20;;;;;;;;;;8272809;28;20375;-69
2021/06/26 13:05:03;;;;;;;4.88;3.78;;;;;;;;;;8289166;28;20456;-69
2021/06/26 13:09:08;;;;;;;4.93;3.80;;;;;;;;;;8290941;28;20452;-69
2021/06/26 13:13:14;;;;;;;6.30;3.47;;;;;;;;;;8291121;28;20448;-70
2021/06/26 13:17:21;;;;;;;11.05;3.05;;;;;;;;;;8290298;28;20474;-69
2021/06/26 13:21:26;;;;;;;6.10;3.28;;;;;;;;;;8272328;28;20467;-70
2021/06/26 13:25:35;;;;;;;16.17;3.63;;;;;;;;;;8290059;28;20070;-70
2021/06/26 13:29:42;;;;;;;4.57;2.83;;;;;;;;;;8289692;28;20448;-69
2021/06/26 13:33:50;;;;;;;5.28;2.97;;;;;;;;;;8291139;28;20474;-70
2021/06/26 13:37:54;;;;;;;4.60;3.53;;;;;;;;;;8290616;28;20079;-70
2021/06/26 13:42:00;;;;;;;4.25;3.20;;;;;;;;;;8272834;28;20515;-70
2021/06/26 13:46:05;;;;;;;7.85;2.95;;;;;;;;;;8290071;28;20494;-70
2021/06/26 13:50:11;;;;;;;6.22;3.03;;;;;;;;;;8289717;28;20385;-72
2021/06/26 13:54:17;;;;;;;6.22;2.80;;;;;;;;;;8288735;28;20407;-70
2021/06/26 13:58:22;;;;;;;5.88;2.58;;;;;;;;;;8291642;28;20337;-71
2021/06/26 14:02:28;;;;;;;4.18;2.67;;;;;;;;;;8289406;28;20378;-71
2021/06/26 14:06:33;;;;;;;3.95;2.45;;;;;;;;;;8288614;28;20402;-69
2021/06/26 14:10:39;;;;;;;4.75;2.88;;;;;;;;;;8289830;28;20379;-70
2021/06/26 14:14:45;;;;;;;5.05;2.33;;;;;;;;;;8293013;28;20361;-69
2021/06/26 14:18:50;;;;;;;2.90;2.20;;;;;;;;;;8295672;28;20379;-69
2021/06/26 14:22:58;;;;;;;5.50;2.28;;;;;;;;;;8295175;28;20067;-70
2021/06/26 14:27:04;;;;;;;3.10;2.03;;;;;;;;;;8277670;28;20387;-72
2021/06/26 14:31:10;;;;;;;4.45;2.53;;;;;;;;;;8297086;28;20494;-69
2021/06/26 14:35:16;;;;;;;5.22;2.55;;;;;;;;;;8296247;28;20075;-70
2021/06/26 14:39:21;;;;;;;9.35;2.88;;;;;;;;;;8276468;28;20483;-70
2021/06/26 14:43:27;;;;;;;4.60;2.45;;;;;;;;;;8294692;28;20474;-70
2021/06/26 14:47:33;;;;;;;6.70;2.88;;;;;;;;;;8296461;28;20490;-70
2021/06/26 14:51:39;;;;;;;8.68;3.83;;;;;;;;;;8293554;28;20448;-70
2021/06/26 14:55:52;;;;;;;9.38;3.72;;;;;;;;;;8277271;28;20348;-72
2021/06/26 14:59:57;;;;;;;7.70;4.80;;;;;;;;;;8294002;28;20329;-73
2021/06/26 15:04:03;;;;;;;11.75;5.15;;;;;;;;;;8293915;28;20341;-72
2021/06/26 15:08:08;;;;;;;10.57;6.32;;;;;;;;;;8292349;28;20441;-74
2021/06/26 15:12:14;;;;;;;6.47;4.35;;;;;;;;;;8294735;28;20478;-73
2021/06/26 15:16:20;;;;;;;5.18;3.15;;;;;;;;;;8295757;28;20471;-74
2021/06/26 15:20:26;;;;;;;5.95;3.88;;;;;;;;;;8292854;28;20385;-74
2021/06/26 15:24:34;;;;;;;5.45;3.78;;;;;;;;;;8274385;28;20371;-73
2021/06/26 15:28:39;;;;;;;5.60;3.83;;;;;;;;;;8293521;28;20478;-73
2021/06/26 15:32:44;;;;;;;4.25;3.25;;;;;;;;;;8293425;28;20460;-74
2021/06/26 15:36:50;;;;;;;16.40;6.75;;;;;;;;;;8293649;28;20478;-73
2021/06/26 15:41:03;;;;;;;5.28;4.07;;;;;;;;;;8291984;28;20491;-73
2021/06/26 15:45:11;;;;;;;5.53;3.47;;;;;;;;;;8292164;28;20494;-73
2021/06/26 15:49:16;;;;;;;5.10;3.70;;;;;;;;;;8274827;28;20410;-73
2021/06/26 15:53:21;;;;;;;5.68;3.63;;;;;;;;;;8292608;28;20473;-72
2021/06/26 15:57:27;;;;;;;6.80;3.75;;;;;;;;;;8292222;28;20407;-72
2021/06/26 16:01:33;;;;;;;4.45;3.67;;;;;;;;;;8292634;28;20360;-72
2021/06/26 16:05:38;;;;;;;4.82;3.55;;;;;;;;;;8292222;28;20392;-72
2021/06/26 16:09:45;;;;;;;4.75;3.90;;;;;;;;;;8291586;28;20543;-72
2021/06/26 16:13:52;;;;;;;6.00;3.70;;;;;;;;;;8293031;28;20498;-73
2021/06/26 16:17:57;;;;;;;6.40;3.50;;;;;;;;;;8290943;28;20391;-72
2021/06/26 16:22:05;;;;;;;3.30;2.88;;;;;;;;;;8273231;28;20048;-72
2021/06/26 16:26:11;;;;;;;;;;;;;;;;;;8294171;28;20057;-72
2021/06/26 16:30:17;;;;;;;5.32;2.70;;;;;;;;;;8293291;28;19946;-73
2021/06/26 16:34:22;;;;;;;5.38;3.15;;;;;;;;;;8291283;28;20357;-72
2021/06/26 16:38:30;;;;;;;4.03;3.13;;;;;;;;;;8292210;28;20391;-72
2021/06/26 16:42:42;;;;;;;;;;;;;;;;;;8293826;28;20070;-71
2021/06/26 16:46:51;;;;;;;7.35;2.80;;;;;;;;;;8257252;28;20331;-72
2021/06/26 16:50:59;;;;;;;9.25;3.58;;;;;;;;;;8290555;28;20070;-71
2021/06/26 16:55:06;;;;;;;4.03;2.80;;;;;;;;;;8291534;28;20494;-71
2021/06/26 16:59:11;;;;;;;5.97;3.53;;;;;;;;;;8273627;28;20375;-71
2021/06/26 17:03:17;;;;;;;3.80;3.05;;;;;;;;;;8290167;28;20403;-71
2021/06/26 17:07:22;;;;;;;4.68;3.40;;;;;;;;;;8272330;28;20452;-71
2021/06/26 17:11:28;;;;;;;4.55;3.53;;;;;;;;;;8257464;28;20362;-70
2021/06/26 17:15:33;;;;;;;4.75;3.30;;;;;;;;;;8290695;28;20360;-71
2021/06/26 17:19:39;;;;;;;6.75;4.38;;;;;;;;;;8290931;28;20057;-71
2021/06/26 17:23:44;;;;;;;9.60;5.75;;;;;;;;;;8292933;28;20476;-70
2021/06/26 17:27:50;;;;;;;16.60;8.60;;;;;;;;;;8289906;28;20375;-71
2021/06/26 17:31:55;;;;;;;13.75;7.53;;;;;;;;;;8290081;28;20345;-71
2021/06/26 17:36:01;;;;;;;14.45;7.72;;;;;;;;;;8292081;28;20086;-71
2021/06/26 17:40:08;;;;;;;16.50;8.95;;;;;;;;;;8290267;28;20456;-70
2021/06/26 17:44:13;;;;;;;12.63;8.35;;;;;;;;;;8291384;28;20337;-71
2021/06/26 17:48:19;;;;;;;25.58;15.50;;;;;;;;;;8290622;28;20487;-71
2021/06/26 17:52:24;;;;;;;27.35;15.75;;;;;;;;;;8281916;28;20455;-70
2021/06/26 17:56:30;;;;;;;24.95;14.80;;;;;;;;;;8296076;28;20353;-70
2021/06/26 18:00:36;;;;;;;9.63;4.65;;;;;;;;;;8296238;28;20119;-71
2021/06/26 18:04:42;;;;;;;7.80;5.75;;;;;;;;;;8296290;28;20349;-71
2021/06/26 18:08:47;;;;;;;9.55;6.45;;;;;;;;;;8296346;28;20479;-71
2021/06/26 18:12:54;;;;;;;18.25;6.43;;;;;;;;;;8295512;28;20464;-70
2021/06/26 18:16:59;;;;;;;10.60;6.97;;;;;;;;;;8278547;28;20367;-70
2021/06/26 18:21:05;;;;;;;9.98;5.47;;;;;;;;;;8295475;28;20487;-70
2021/06/26 18:25:11;;;;;;;8.07;6.35;;;;;;;;;;8295426;28;20365;-70
2021/06/26 18:29:17;;;;;;;10.75;5.68;;;;;;;;;;8296649;28;20383;-70
2021/06/26 18:33:22;;;;;;;7.95;5.88;;;;;;;;;;8294800;28;20044;-70
2021/06/26 18:37:27;;;;;;;7.28;5.35;;;;;;;;;;8294880;28;20422;-70
2021/06/26 18:41:34;;;;;;;7.28;5.65;;;;;;;;;;8292316;28;20053;-70
2021/06/26 18:45:40;;;;;;;15.68;9.40;;;;;;;;;;8275060;28;20340;-70
2021/06/26 18:49:45;;;;;;;12.50;6.97;;;;;;;;;;8275360;28;20078;-71
2021/06/26 18:53:50;;;;;;;7.50;5.28;;;;;;;;;;8292626;28;20456;-70
2021/06/26 18:57:56;;;;;;;7.28;5.43;;;;;;;;;;8292188;28;20387;-71
2021/06/26 19:02:00;;;;;;;15.98;10.52;;;;;;;;;;8275209;28;20640;-70
2021/06/26 19:06:06;;;;;;;8.95;7.03;;;;;;;;;;8275702;28;20443;-71
2021/06/26 19:10:19;;;;;;;23.70;15.50;;;;;;;;;;8276266;28;20060;-70
2021/06/26 19:14:24;;;;;;;17.17;10.55;;;;;;;;;;8274793;28;20364;-71
2021/06/26 19:18:31;;;;;;;22.75;12.88;;;;;;;;;;8290327;28;20501;-71
2021/06/26 19:22:40;;;;;;;19.35;10.52;;;;;;;;;;8257989;28;20470;-71
2021/06/26 19:26:46;;;;;;;8.60;5.85;;;;;;;;;;8293208;28;20345;-72
2021/06/26 19:30:57;;;;;;;8.85;5.55;;;;;;;;;;8293692;28;20375;-72
2021/06/26 19:35:05;;;;;;;11.55;6.68;;;;;;;;;;8292207;28;20471;-71
2021/06/26 19:39:10;;;;;;;7.00;5.10;;;;;;;;;;8275456;28;20049;-71
2021/06/26 19:43:16;;;;;;;6.38;5.25;;;;;;;;;;8292489;28;20361;-71
2021/06/26 19:47:21;;;;;;;7.70;5.03;;;;;;;;;;8290699;28;20384;-71
2021/06/26 19:51:27;;;;;;;7.65;4.95;;;;;;;;;;8290442;28;20435;-71
2021/06/26 19:55:33;;;;;;;6.57;4.85;;;;;;;;;;8291896;28;20478;-70
2021/06/26 19:59:40;;;;;;;12.35;6.18;;;;;;;;;;8288934;28;20386;-71
2021/06/26 20:03:44;;;;;;;26.30;8.75;;;;;;;;;;8290983;28;20390;-71
2021/06/26 20:07:49;;;;;;;10.73;6.60;;;;;;;;;;8290626;28;20414;-71
2021/06/26 20:11:54;;;;;;;18.30;6.93;;;;;;;;;;8290229;28;20467;-71
2021/06/26 20:16:00;;;;;;;16.52;7.57;;;;;;;;;;8293362;28;20379;-71
2021/06/26 20:20:08;;;;;;;9.82;6.07;;;;;;;;;;8272423;28;20519;-71
2021/06/26 20:24:13;;;;;;;16.95;6.28;;;;;;;;;;8288258;28;20480;-72
2021/06/26 20:28:18;;;;;;;16.58;7.28;;;;;;;;;;8292170;28;20416;-72
2021/06/26 20:32:24;;;;;;;47.25;13.15;;;;;;;;;;8289285;28;20476;-72
2021/06/26 20:36:30;;;;;;;20.83;8.15;;;;;;;;;;8291105;28;20569;-72
2021/06/26 20:40:36;;;;;;;24.63;7.88;;;;;;;;;;8273847;28;20087;-72
2021/06/26 20:44:41;;;;;;;12.25;6.03;;;;;;;;;;8289996;28;20060;-72
2021/06/26 20:48:47;;;;;;;18.60;7.97;;;;;;;;;;8289102;28;20391;-72
2021/06/26 20:53:02;;;;;;;18.95;7.03;;;;;;;;;;8291134;28;20076;-72
2021/06/26 20:57:08;;;;;;;16.38;7.25;;;;;;;;;;8289904;28;20116;-71
2021/06/26 21:01:34;;;;;;;14.00;5.03;;;;;;;;;;8275295;28;20064;-71
2021/06/26 21:05:38;;;;;;;10.35;5.15;;;;;;;;;;8288166;28;20410;-72
2021/06/26 21:09:44;;;;;;;5.65;4.35;;;;;;;;;;8286687;28;20498;-71
2021/06/26 21:13:49;;;;;;;15.93;6.93;;;;;;;;;;8272658;28;20424;-72
2021/06/26 21:17:54;;;;;;;18.95;7.22;;;;;;;;;;8289262;28;20353;-71
2021/06/26 21:22:00;;;;;;;17.30;8.00;;;;;;;;;;8288026;28;20372;-72
2021/06/26 21:26:06;;;;;;;17.85;7.75;;;;;;;;;;8270559;28;20490;-72
2021/06/26 21:30:14;;;;;;;17.40;6.97;;;;;;;;;;8291034;28;20470;-71
2021/06/26 21:34:20;;;;;;;14.75;6.70;;;;;;;;;;8272372;28;20056;-72
2021/06/26 21:38:25;;;;;;;14.02;6.03;;;;;;;;;;8289250;28;20498;-71
2021/06/26 21:42:30;;;;;;;16.08;6.28;;;;;;;;;;8289518;28;20391;-71
2021/06/26 21:46:37;;;;;;;18.30;5.38;;;;;;;;;;8289476;28;20403;-71
2021/06/26 21:50:45;;;;;;;13.48;5.85;;;;;;;;;;8290421;28;20394;-71
2021/06/26 21:54:50;;;;;;;20.25;6.57;;;;;;;;;;8288815;28;20448;-71
2021/06/26 21:58:56;;;;;;;37.53;9.30;;;;;;;;;;8288316;28;20474;-71
2021/06/26 22:03:02;;;;;;;18.73;8.20;;;;;;;;;;8289236;28;20052;-72
2021/06/26 22:07:08;;;;;;;23.23;10.65;;;;;;;;;;8289293;28;20345;-72
2021/06/26 22:11:13;;;;;;;17.15;7.85;;;;;;;;;;8273381;28;20066;-72
2021/06/26 22:15:19;;;;;;;21.63;7.10;;;;;;;;;;8271776;28;20451;-72
2021/06/26 22:19:25;;;;;;;13.18;5.78;;;;;;;;;;8287629;28;20107;-71
2021/06/26 22:23:31;;;;;;;14.90;5.93;;;;;;;;;;8290977;28;20501;-72
2021/06/26 22:27:37;;;;;;;12.15;5.43;;;;;;;;;;8288620;28;20418;-73
2021/06/26 22:31:42;;;;;;;13.00;5.07;;;;;;;;;;8287785;28;20456;-73
2021/06/26 22:35:49;;;;;;;13.63;4.63;;;;;;;;;;8292484;28;20369;-72
2021/06/26 22:39:54;;;;;;;15.15;5.22;;;;;;;;;;8292849;28;20451;-72
2021/06/26 22:44:00;;;;;;;20.58;6.03;;;;;;;;;;8294345;28;20341;-73
2021/06/26 22:48:08;;;;;;;22.77;5.57;;;;;;;;;;8295884;28;20379;-72
2021/06/26 22:52:14;;;;;;;14.88;5.35;;;;;;;;;;8276346;28;20045;-72
2021/06/26 22:56:19;;;;;;;12.88;5.10;;;;;;;;;;8277130;28;20375;-72
2021/06/26 23:00:30;;;;;;;17.88;5.72;;;;;;;;;;8294491;28;20384;-73
2021/06/26 23:04:36;;;;;;;15.10;5.35;;;;;;;;;;8249751;28;20056;-72
2021/06/26 23:08:40;;;;;;;13.60;6.40;;;;;;;;;;8261673;28;20045;-74
2021/06/26 23:12:46;;;;;;;16.88;7.00;;;;;;;;;;8260743;28;20464;-73
2021/06/26 23:16:53;;;;;;;11.32;6.03;;;;;;;;;;8260193;28;20061;-73
2021/06/26 23:20:59;;;;;;;7.00;4.93;;;;;;;;;;8261160;28;20464;-72
2021/06/26 23:25:06;;;;;;;13.70;5.30;;;;;;;;;;8243619;28;20365;-73
2021/06/26 23:29:11;;;;;;;9.02;5.00;;;;;;;;;;8260719;28;20350;-73
2021/06/26 23:33:18;;;;;;;13.57;5.65;;;;;;;;;;8262797;28;20445;-73
2021/06/26 23:37:23;;;;;;;8.85;4.70;;;;;;;;;;8226981;28;20353;-72
2021/06/26 23:41:29;;;;;;;8.05;4.53;;;;;;;;;;8259342;28;20452;-72
2021/06/26 23:45:38;;;;;;;6.93;4.70;;;;;;;;;;8259810;28;20053;-73
2021/06/26 23:49:43;;;;;;;6.97;5.15;;;;;;;;;;8241790;28;20510;-73
2021/06/26 23:53:50;;;;;;;9.18;4.70;;;;;;;;;;8261478;28;20112;-72
2021/06/26 23:57:56;;;;;;;8.30;4.38;;;;;;;;;;8240948;28;20440;-73
